Delburne, Canada
Current Conditions -  °F | °C
As of 7:00 PM on Thursday 18 Dec 2014 (Local Time) from CYQF Reporting Station
Clear Clear  
Wind Chill: 15°   Ceiling: Unl
Heat Index: 21°   Visibility: 15mi
Dew Point: 19°   Wind: 5mph
Humidity: 93%   Direction: 170°S
Pressure: 29.79"   Gusts: NA
Location:  52.2°N, 113.23°W
Report Text: CYQF 190200Z 17004KT 15SM SKC M06/M07 A2979 RMK SLP150
Loading
Personal Weather Stations






























Interactive Weather Map New forecast layout! Learn more

10-Day Weather Forecast

Advertisements
Track Severe Weather on mobile